sensor_id;sensor_type;location;lat;lon;timestamp;P1;durP1;ratioP1;P2;durP2;ratioP2
62535;SDS011;63050;47.514;18.920;2023-07-13T00:00:36;4.40;;;2.30;;
62535;SDS011;63050;47.514;18.920;2023-07-13T00:05:37;5.60;;;1.50;;
62535;SDS011;63050;47.514;18.920;2023-07-13T00:10:41;3.00;;;1.40;;
62535;SDS011;63050;47.514;18.920;2023-07-13T00:15:42;3.20;;;1.50;;
62535;SDS011;63050;47.514;18.920;2023-07-13T00:20:43;2.10;;;1.30;;
62535;SDS011;63050;47.514;18.920;2023-07-13T00:25:44;2.00;;;1.40;;
62535;SDS011;63050;47.514;18.920;2023-07-13T00:30:45;3.30;;;1.10;;
62535;SDS011;63050;47.514;18.920;2023-07-13T00:35:47;5.00;;;1.80;;
62535;SDS011;63050;47.514;18.920;2023-07-13T00:40:48;4.70;;;1.50;;
62535;SDS011;63050;47.514;18.920;2023-07-13T00:50:51;3.00;;;1.50;;
62535;SDS011;63050;47.514;18.920;2023-07-13T00:55:54;2.90;;;1.50;;
62535;SDS011;63050;47.514;18.920;2023-07-13T01:00:56;4.00;;;1.50;;
62535;SDS011;63050;47.514;18.920;2023-07-13T01:05:57;4.10;;;1.60;;
62535;SDS011;63050;47.514;18.920;2023-07-13T01:10:58;3.30;;;1.50;;
62535;SDS011;63050;47.514;18.920;2023-07-13T01:16:00;4.90;;;1.40;;
62535;SDS011;63050;47.514;18.920;2023-07-13T01:21:04;3.30;;;1.10;;
62535;SDS011;63050;47.514;18.920;2023-07-13T01:26:06;2.40;;;1.20;;
62535;SDS011;63050;47.514;18.920;2023-07-13T01:31:07;2.90;;;1.30;;
62535;SDS011;63050;47.514;18.920;2023-07-13T01:36:10;4.50;;;1.30;;
62535;SDS011;63050;47.514;18.920;2023-07-13T01:41:12;2.10;;;1.10;;
62535;SDS011;63050;47.514;18.920;2023-07-13T01:46:13;4.60;;;1.50;;
62535;SDS011;63050;47.514;18.920;2023-07-13T01:51:15;2.10;;;1.20;;
62535;SDS011;63050;47.514;18.920;2023-07-13T01:56:17;3.30;;;1.20;;
62535;SDS011;63050;47.514;18.920;2023-07-13T02:01:17;2.50;;;1.00;;
62535;SDS011;63050;47.514;18.920;2023-07-13T02:06:18;2.10;;;1.00;;
62535;SDS011;63050;47.514;18.920;2023-07-13T02:11:19;4.50;;;1.10;;
62535;SDS011;63050;47.514;18.920;2023-07-13T02:16:20;3.00;;;0.90;;
62535;SDS011;63050;47.514;18.920;2023-07-13T02:21:21;2.50;;;0.80;;
62535;SDS011;63050;47.514;18.920;2023-07-13T02:26:26;1.80;;;0.90;;
62535;SDS011;63050;47.514;18.920;2023-07-13T02:31:28;2.10;;;1.10;;
62535;SDS011;63050;47.514;18.920;2023-07-13T02:36:29;2.00;;;1.00;;
62535;SDS011;63050;47.514;18.920;2023-07-13T02:41:31;1.90;;;1.10;;
62535;SDS011;63050;47.514;18.920;2023-07-13T02:46:34;1.30;;;0.80;;
62535;SDS011;63050;47.514;18.920;2023-07-13T02:51:36;2.00;;;0.90;;
62535;SDS011;63050;47.514;18.920;2023-07-13T02:56:37;2.10;;;0.90;;
62535;SDS011;63050;47.514;18.920;2023-07-13T03:01:39;2.90;;;0.90;;
62535;SDS011;63050;47.514;18.920;2023-07-13T03:06:41;2.10;;;0.80;;
62535;SDS011;63050;47.514;18.920;2023-07-13T03:11:43;2.90;;;0.80;;
62535;SDS011;63050;47.514;18.920;2023-07-13T03:17:13;2.10;;;0.90;;
62535;SDS011;63050;47.514;18.920;2023-07-13T03:22:16;1.40;;;0.90;;
62535;SDS011;63050;47.514;18.920;2023-07-13T03:27:17;3.80;;;1.10;;
62535;SDS011;63050;47.514;18.920;2023-07-13T03:32:20;3.00;;;1.40;;
62535;SDS011;63050;47.514;18.920;2023-07-13T03:37:21;5.00;;;1.20;;
62535;SDS011;63050;47.514;18.920;2023-07-13T03:42:22;2.20;;;1.60;;
62535;SDS011;63050;47.514;18.920;2023-07-13T03:47:23;1.90;;;1.00;;
62535;SDS011;63050;47.514;18.920;2023-07-13T03:52:24;1.60;;;1.00;;
62535;SDS011;63050;47.514;18.920;2023-07-13T03:57:26;3.20;;;0.90;;
62535;SDS011;63050;47.514;18.920;2023-07-13T04:02:27;2.20;;;0.90;;
62535;SDS011;63050;47.514;18.920;2023-07-13T04:07:28;2.70;;;1.10;;
62535;SDS011;63050;47.514;18.920;2023-07-13T04:12:29;3.30;;;1.10;;
62535;SDS011;63050;47.514;18.920;2023-07-13T04:17:30;2.10;;;1.40;;
62535;SDS011;63050;47.514;18.920;2023-07-13T04:22:31;2.90;;;1.10;;
62535;SDS011;63050;47.514;18.920;2023-07-13T04:27:31;4.10;;;1.30;;
62535;SDS011;63050;47.514;18.920;2023-07-13T04:32:32;3.00;;;1.40;;
62535;SDS011;63050;47.514;18.920;2023-07-13T04:37:33;4.80;;;1.70;;
62535;SDS011;63050;47.514;18.920;2023-07-13T04:42:34;4.20;;;2.10;;
62535;SDS011;63050;47.514;18.920;2023-07-13T04:47:34;5.10;;;2.30;;
62535;SDS011;63050;47.514;18.920;2023-07-13T04:52:36;7.20;;;2.80;;
62535;SDS011;63050;47.514;18.920;2023-07-13T04:57:37;7.20;;;2.50;;
62535;SDS011;63050;47.514;18.920;2023-07-13T05:02:38;6.00;;;3.00;;
62535;SDS011;63050;47.514;18.920;2023-07-13T05:07:39;8.10;;;3.30;;
62535;SDS011;63050;47.514;18.920;2023-07-13T05:12:40;7.00;;;3.50;;
62535;SDS011;63050;47.514;18.920;2023-07-13T05:17:41;6.50;;;3.00;;
62535;SDS011;63050;47.514;18.920;2023-07-13T05:22:42;7.10;;;2.80;;
62535;SDS011;63050;47.514;18.920;2023-07-13T05:27:43;3.80;;;2.20;;
62535;SDS011;63050;47.514;18.920;2023-07-13T05:32:46;4.10;;;2.10;;
62535;SDS011;63050;47.514;18.920;2023-07-13T05:37:47;4.60;;;2.20;;
62535;SDS011;63050;47.514;18.920;2023-07-13T05:42:48;5.90;;;2.00;;
62535;SDS011;63050;47.514;18.920;2023-07-13T05:47:49;4.10;;;2.00;;
62535;SDS011;63050;47.514;18.920;2023-07-13T05:52:50;3.30;;;1.90;;
62535;SDS011;63050;47.514;18.920;2023-07-13T05:57:52;3.70;;;1.50;;
62535;SDS011;63050;47.514;18.920;2023-07-13T06:02:53;5.10;;;1.70;;
62535;SDS011;63050;47.514;18.920;2023-07-13T06:07:54;1.90;;;1.20;;
62535;SDS011;63050;47.514;18.920;2023-07-13T06:12:55;4.80;;;1.60;;
62535;SDS011;63050;47.514;18.920;2023-07-13T06:17:56;4.30;;;1.50;;
62535;SDS011;63050;47.514;18.920;2023-07-13T06:22:57;3.90;;;1.30;;
62535;SDS011;63050;47.514;18.920;2023-07-13T06:27:58;2.50;;;1.20;;
62535;SDS011;63050;47.514;18.920;2023-07-13T06:32:59;2.40;;;1.50;;
62535;SDS011;63050;47.514;18.920;2023-07-13T06:38:00;2.50;;;1.50;;
62535;SDS011;63050;47.514;18.920;2023-07-13T06:43:01;2.90;;;1.30;;
62535;SDS011;63050;47.514;18.920;2023-07-13T06:48:02;3.00;;;1.50;;
62535;SDS011;63050;47.514;18.920;2023-07-13T06:53:03;2.70;;;1.60;;
62535;SDS011;63050;47.514;18.920;2023-07-13T06:58:04;2.70;;;1.70;;
62535;SDS011;63050;47.514;18.920;2023-07-13T07:03:05;4.30;;;1.20;;
62535;SDS011;63050;47.514;18.920;2023-07-13T07:08:06;2.20;;;1.50;;
62535;SDS011;63050;47.514;18.920;2023-07-13T07:13:07;3.20;;;1.40;;
62535;SDS011;63050;47.514;18.920;2023-07-13T07:18:08;3.20;;;1.60;;
62535;SDS011;63050;47.514;18.920;2023-07-13T07:23:09;3.60;;;1.70;;
62535;SDS011;63050;47.514;18.920;2023-07-13T07:28:10;3.50;;;1.70;;
62535;SDS011;63050;47.514;18.920;2023-07-13T07:33:11;2.70;;;1.50;;
62535;SDS011;63050;47.514;18.920;2023-07-13T07:38:13;3.00;;;1.50;;
62535;SDS011;63050;47.514;18.920;2023-07-13T07:43:14;4.10;;;1.90;;
62535;SDS011;63050;47.514;18.920;2023-07-13T07:48:15;3.90;;;1.80;;
62535;SDS011;63050;47.514;18.920;2023-07-13T07:53:15;4.80;;;1.60;;
62535;SDS011;63050;47.514;18.920;2023-07-13T07:58:16;4.00;;;1.60;;
62535;SDS011;63050;47.514;18.920;2023-07-13T08:03:17;3.30;;;1.40;;
62535;SDS011;63050;47.514;18.920;2023-07-13T08:08:18;3.90;;;1.60;;
62535;SDS011;63050;47.514;18.920;2023-07-13T08:13:19;2.40;;;1.60;;
62535;SDS011;63050;47.514;18.920;2023-07-13T08:18:20;2.40;;;1.50;;
62535;SDS011;63050;47.514;18.920;2023-07-13T08:23:22;3.00;;;1.70;;
62535;SDS011;63050;47.514;18.920;2023-07-13T08:28:24;4.30;;;1.80;;
62535;SDS011;63050;47.514;18.920;2023-07-13T08:33:25;4.10;;;1.70;;
62535;SDS011;63050;47.514;18.920;2023-07-13T08:38:26;3.00;;;1.70;;
62535;SDS011;63050;47.514;18.920;2023-07-13T08:43:29;2.70;;;1.50;;
62535;SDS011;63050;47.514;18.920;2023-07-13T08:48:35;4.30;;;1.90;;
62535;SDS011;63050;47.514;18.920;2023-07-13T08:53:48;2.90;;;1.50;;
62535;SDS011;63050;47.514;18.920;2023-07-13T08:58:53;2.70;;;1.80;;
62535;SDS011;63050;47.514;18.920;2023-07-13T09:04:16;5.50;;;2.00;;
62535;SDS011;63050;47.514;18.920;2023-07-13T09:19:35;4.20;;;1.90;;
62535;SDS011;63050;47.514;18.920;2023-07-13T09:30:33;4.60;;;2.00;;
62535;SDS011;63050;47.514;18.920;2023-07-13T09:35:18;3.20;;;2.00;;
62535;SDS011;63050;47.514;18.920;2023-07-13T09:40:28;3.40;;;2.10;;
62535;SDS011;63050;47.514;18.920;2023-07-13T09:45:34;4.70;;;2.00;;
62535;SDS011;63050;47.514;18.920;2023-07-13T09:50:36;6.00;;;1.70;;
62535;SDS011;63050;47.514;18.920;2023-07-13T09:55:38;3.50;;;1.90;;
62535;SDS011;63050;47.514;18.920;2023-07-13T10:00:40;5.10;;;1.60;;
62535;SDS011;63050;47.514;18.920;2023-07-13T10:05:42;4.00;;;1.70;;
62535;SDS011;63050;47.514;18.920;2023-07-13T10:10:44;3.20;;;1.50;;
62535;SDS011;63050;47.514;18.920;2023-07-13T10:15:46;3.70;;;1.80;;
62535;SDS011;63050;47.514;18.920;2023-07-13T10:20:53;6.40;;;1.70;;
62535;SDS011;63050;47.514;18.920;2023-07-13T10:25:55;2.80;;;1.70;;
62535;SDS011;63050;47.514;18.920;2023-07-13T10:30:58;4.10;;;1.70;;
62535;SDS011;63050;47.514;18.920;2023-07-13T10:41:30;3.40;;;1.60;;
62535;SDS011;63050;47.514;18.920;2023-07-13T10:46:34;3.20;;;1.60;;
62535;SDS011;63050;47.514;18.920;2023-07-13T10:51:35;1.90;;;1.20;;
62535;SDS011;63050;47.514;18.920;2023-07-13T10:56:38;2.00;;;1.30;;
62535;SDS011;63050;47.514;18.920;2023-07-13T11:01:46;2.40;;;1.40;;
62535;SDS011;63050;47.514;18.920;2023-07-13T11:06:53;3.70;;;1.60;;
62535;SDS011;63050;47.514;18.920;2023-07-13T11:12:01;4.00;;;1.60;;
62535;SDS011;63050;47.514;18.920;2023-07-13T11:17:23;3.80;;;1.40;;
62535;SDS011;63050;47.514;18.920;2023-07-13T11:27:51;5.80;;;1.60;;
62535;SDS011;63050;47.514;18.920;2023-07-13T11:38:10;2.90;;;1.50;;
62535;SDS011;63050;47.514;18.920;2023-07-13T11:43:15;3.40;;;1.60;;
62535;SDS011;63050;47.514;18.920;2023-07-13T11:48:18;2.60;;;1.60;;
62535;SDS011;63050;47.514;18.920;2023-07-13T11:53:22;2.60;;;1.70;;
62535;SDS011;63050;47.514;18.920;2023-07-13T11:58:24;2.60;;;1.80;;
62535;SDS011;63050;47.514;18.920;2023-07-13T12:03:25;2.50;;;1.80;;
62535;SDS011;63050;47.514;18.920;2023-07-13T12:08:27;2.30;;;1.50;;
62535;SDS011;63050;47.514;18.920;2023-07-13T12:13:28;4.00;;;1.60;;
62535;SDS011;63050;47.514;18.920;2023-07-13T12:18:31;6.80;;;2.00;;
62535;SDS011;63050;47.514;18.920;2023-07-13T12:23:34;3.60;;;2.20;;
62535;SDS011;63050;47.514;18.920;2023-07-13T12:28:37;2.90;;;1.70;;
62535;SDS011;63050;47.514;18.920;2023-07-13T12:33:44;3.90;;;1.90;;
62535;SDS011;63050;47.514;18.920;2023-07-13T12:38:45;2.80;;;1.90;;
62535;SDS011;63050;47.514;18.920;2023-07-13T12:43:47;2.50;;;1.60;;
62535;SDS011;63050;47.514;18.920;2023-07-13T12:48:48;2.60;;;1.70;;
62535;SDS011;63050;47.514;18.920;2023-07-13T12:53:56;2.60;;;1.70;;
62535;SDS011;63050;47.514;18.920;2023-07-13T12:59:01;2.70;;;1.70;;
62535;SDS011;63050;47.514;18.920;2023-07-13T13:04:03;4.00;;;1.80;;
62535;SDS011;63050;47.514;18.920;2023-07-13T13:09:17;2.80;;;1.70;;
62535;SDS011;63050;47.514;18.920;2023-07-13T13:14:20;2.60;;;1.60;;
62535;SDS011;63050;47.514;18.920;2023-07-13T13:19:23;2.10;;;1.40;;
62535;SDS011;63050;47.514;18.920;2023-07-13T13:24:26;3.00;;;1.60;;
62535;SDS011;63050;47.514;18.920;2023-07-13T13:29:27;2.20;;;1.70;;
62535;SDS011;63050;47.514;18.920;2023-07-13T13:34:28;2.60;;;1.80;;
62535;SDS011;63050;47.514;18.920;2023-07-13T13:39:33;4.90;;;2.00;;
62535;SDS011;63050;47.514;18.920;2023-07-13T13:44:35;2.60;;;1.80;;
62535;SDS011;63050;47.514;18.920;2023-07-13T13:49:36;2.90;;;1.80;;
62535;SDS011;63050;47.514;18.920;2023-07-13T13:54:37;2.10;;;1.60;;
62535;SDS011;63050;47.514;18.920;2023-07-13T13:59:38;2.90;;;1.60;;
62535;SDS011;63050;47.514;18.920;2023-07-13T14:04:40;2.90;;;1.70;;
62535;SDS011;63050;47.514;18.920;2023-07-13T14:09:40;3.30;;;1.60;;
62535;SDS011;63050;47.514;18.920;2023-07-13T14:14:42;3.30;;;1.40;;
62535;SDS011;63050;47.514;18.920;2023-07-13T14:19:43;3.50;;;2.00;;
62535;SDS011;63050;47.514;18.920;2023-07-13T14:24:43;2.40;;;1.50;;
62535;SDS011;63050;47.514;18.920;2023-07-13T14:29:45;2.50;;;1.60;;
62535;SDS011;63050;47.514;18.920;2023-07-13T14:34:46;2.00;;;1.60;;
62535;SDS011;63050;47.514;18.920;2023-07-13T14:39:46;3.10;;;1.90;;
62535;SDS011;63050;47.514;18.920;2023-07-13T14:44:50;2.40;;;1.80;;
62535;SDS011;63050;47.514;18.920;2023-07-13T14:49:52;3.50;;;1.90;;
62535;SDS011;63050;47.514;18.920;2023-07-13T14:54:52;3.00;;;1.80;;
62535;SDS011;63050;47.514;18.920;2023-07-13T14:59:54;2.60;;;1.70;;
62535;SDS011;63050;47.514;18.920;2023-07-13T15:04:55;3.20;;;1.70;;
62535;SDS011;63050;47.514;18.920;2023-07-13T15:09:57;2.50;;;1.80;;
62535;SDS011;63050;47.514;18.920;2023-07-13T15:14:58;3.90;;;1.70;;
62535;SDS011;63050;47.514;18.920;2023-07-13T15:19:59;2.80;;;2.10;;
62535;SDS011;63050;47.514;18.920;2023-07-13T15:25:00;2.60;;;1.70;;
62535;SDS011;63050;47.514;18.920;2023-07-13T15:30:04;4.20;;;2.10;;
62535;SDS011;63050;47.514;18.920;2023-07-13T15:35:12;4.20;;;1.80;;
62535;SDS011;63050;47.514;18.920;2023-07-13T15:40:15;3.40;;;2.20;;
62535;SDS011;63050;47.514;18.920;2023-07-13T15:45:17;3.20;;;1.80;;
62535;SDS011;63050;47.514;18.920;2023-07-13T15:50:21;2.30;;;1.50;;
62535;SDS011;63050;47.514;18.920;2023-07-13T15:55:24;2.90;;;1.90;;
62535;SDS011;63050;47.514;18.920;2023-07-13T16:00:25;4.40;;;1.70;;
62535;SDS011;63050;47.514;18.920;2023-07-13T16:05:27;4.20;;;1.60;;
62535;SDS011;63050;47.514;18.920;2023-07-13T16:10:32;2.60;;;1.90;;
62535;SDS011;63050;47.514;18.920;2023-07-13T16:15:35;3.10;;;1.70;;
62535;SDS011;63050;47.514;18.920;2023-07-13T16:20:36;2.70;;;1.70;;
62535;SDS011;63050;47.514;18.920;2023-07-13T16:25:37;3.90;;;2.40;;
62535;SDS011;63050;47.514;18.920;2023-07-13T16:30:38;3.70;;;1.90;;
62535;SDS011;63050;47.514;18.920;2023-07-13T16:35:39;3.80;;;1.90;;
62535;SDS011;63050;47.514;18.920;2023-07-13T16:40:43;2.70;;;1.90;;
62535;SDS011;63050;47.514;18.920;2023-07-13T16:45:44;2.50;;;1.70;;
62535;SDS011;63050;47.514;18.920;2023-07-13T16:50:50;3.50;;;2.10;;
62535;SDS011;63050;47.514;18.920;2023-07-13T16:55:52;3.30;;;1.80;;
62535;SDS011;63050;47.514;18.920;2023-07-13T17:00:57;5.10;;;1.80;;
62535;SDS011;63050;47.514;18.920;2023-07-13T17:05:59;5.60;;;2.20;;
62535;SDS011;63050;47.514;18.920;2023-07-13T17:11:03;5.10;;;2.30;;
62535;SDS011;63050;47.514;18.920;2023-07-13T17:16:07;6.40;;;1.90;;
62535;SDS011;63050;47.514;18.920;2023-07-13T17:21:12;3.20;;;1.80;;
62535;SDS011;63050;47.514;18.920;2023-07-13T17:26:16;4.30;;;1.80;;
62535;SDS011;63050;47.514;18.920;2023-07-13T17:31:18;3.60;;;2.00;;
62535;SDS011;63050;47.514;18.920;2023-07-13T17:36:20;4.20;;;2.00;;
62535;SDS011;63050;47.514;18.920;2023-07-13T17:41:22;3.90;;;1.80;;
62535;SDS011;63050;47.514;18.920;2023-07-13T17:46:27;2.50;;;1.80;;
62535;SDS011;63050;47.514;18.920;2023-07-13T17:51:32;3.70;;;1.80;;
62535;SDS011;63050;47.514;18.920;2023-07-13T17:56:36;3.10;;;2.00;;
62535;SDS011;63050;47.514;18.920;2023-07-13T18:01:38;3.30;;;2.10;;
62535;SDS011;63050;47.514;18.920;2023-07-13T18:06:42;4.50;;;1.90;;
62535;SDS011;63050;47.514;18.920;2023-07-13T18:11:53;2.80;;;1.80;;
62535;SDS011;63050;47.514;18.920;2023-07-13T18:16:59;4.70;;;2.00;;
62535;SDS011;63050;47.514;18.920;2023-07-13T18:22:11;6.40;;;2.20;;
62535;SDS011;63050;47.514;18.920;2023-07-13T18:27:14;6.30;;;2.60;;
62535;SDS011;63050;47.514;18.920;2023-07-13T18:32:16;2.60;;;1.90;;
62535;SDS011;63050;47.514;18.920;2023-07-13T18:37:21;3.70;;;2.00;;
62535;SDS011;63050;47.514;18.920;2023-07-13T18:42:23;2.70;;;2.00;;
62535;SDS011;63050;47.514;18.920;2023-07-13T18:47:25;4.20;;;2.00;;
62535;SDS011;63050;47.514;18.920;2023-07-13T18:52:33;3.00;;;1.50;;
62535;SDS011;63050;47.514;18.920;2023-07-13T18:57:34;2.90;;;2.00;;
62535;SDS011;63050;47.514;18.920;2023-07-13T19:02:37;3.80;;;1.80;;
62535;SDS011;63050;47.514;18.920;2023-07-13T19:07:38;4.20;;;2.30;;
62535;SDS011;63050;47.514;18.920;2023-07-13T19:12:39;4.20;;;2.10;;
62535;SDS011;63050;47.514;18.920;2023-07-13T19:17:43;5.10;;;2.30;;
62535;SDS011;63050;47.514;18.920;2023-07-13T19:22:44;3.50;;;2.50;;
62535;SDS011;63050;47.514;18.920;2023-07-13T19:27:47;4.30;;;2.00;;
62535;SDS011;63050;47.514;18.920;2023-07-13T19:32:50;5.30;;;2.50;;
62535;SDS011;63050;47.514;18.920;2023-07-13T19:37:52;4.30;;;2.60;;
62535;SDS011;63050;47.514;18.920;2023-07-13T19:42:53;6.20;;;2.30;;
62535;SDS011;63050;47.514;18.920;2023-07-13T19:47:57;6.20;;;2.20;;
62535;SDS011;63050;47.514;18.920;2023-07-13T19:52:58;5.80;;;2.60;;
62535;SDS011;63050;47.514;18.920;2023-07-13T19:58:01;3.40;;;2.60;;
62535;SDS011;63050;47.514;18.920;2023-07-13T20:03:04;3.00;;;2.30;;
62535;SDS011;63050;47.514;18.920;2023-07-13T20:08:11;4.00;;;2.00;;
62535;SDS011;63050;47.514;18.920;2023-07-13T20:13:14;3.80;;;2.20;;
62535;SDS011;63050;47.514;18.920;2023-07-13T20:18:16;4.00;;;2.10;;
62535;SDS011;63050;47.514;18.920;2023-07-13T20:23:19;6.10;;;2.70;;
62535;SDS011;63050;47.514;18.920;2023-07-13T20:28:23;5.40;;;1.90;;
62535;SDS011;63050;47.514;18.920;2023-07-13T20:33:26;2.90;;;2.10;;
62535;SDS011;63050;47.514;18.920;2023-07-13T20:38:28;3.40;;;2.20;;
62535;SDS011;63050;47.514;18.920;2023-07-13T20:43:29;3.60;;;2.00;;
62535;SDS011;63050;47.514;18.920;2023-07-13T20:48:38;5.30;;;2.20;;
62535;SDS011;63050;47.514;18.920;2023-07-13T20:53:40;3.90;;;2.20;;
62535;SDS011;63050;47.514;18.920;2023-07-13T20:58:42;4.80;;;2.60;;
62535;SDS011;63050;47.514;18.920;2023-07-13T21:03:44;3.80;;;2.00;;
62535;SDS011;63050;47.514;18.920;2023-07-13T21:08:45;3.80;;;2.20;;
62535;SDS011;63050;47.514;18.920;2023-07-13T21:13:46;4.90;;;2.20;;
62535;SDS011;63050;47.514;18.920;2023-07-13T21:18:48;4.80;;;2.10;;
62535;SDS011;63050;47.514;18.920;2023-07-13T21:23:49;3.10;;;2.10;;
62535;SDS011;63050;47.514;18.920;2023-07-13T21:28:52;5.90;;;2.40;;
62535;SDS011;63050;47.514;18.920;2023-07-13T21:33:53;3.70;;;2.30;;
62535;SDS011;63050;47.514;18.920;2023-07-13T21:38:57;3.80;;;2.40;;
62535;SDS011;63050;47.514;18.920;2023-07-13T21:44:00;2.80;;;2.30;;
62535;SDS011;63050;47.514;18.920;2023-07-13T21:49:01;3.60;;;2.10;;
62535;SDS011;63050;47.514;18.920;2023-07-13T21:54:04;4.60;;;2.50;;
62535;SDS011;63050;47.514;18.920;2023-07-13T21:59:24;3.60;;;2.30;;
62535;SDS011;63050;47.514;18.920;2023-07-13T22:04:27;4.10;;;2.10;;
62535;SDS011;63050;47.514;18.920;2023-07-13T22:09:29;3.20;;;2.00;;
62535;SDS011;63050;47.514;18.920;2023-07-13T22:14:29;3.10;;;2.00;;
62535;SDS011;63050;47.514;18.920;2023-07-13T22:19:31;5.60;;;2.10;;
62535;SDS011;63050;47.514;18.920;2023-07-13T22:24:32;4.80;;;2.30;;
62535;SDS011;63050;47.514;18.920;2023-07-13T22:29:34;4.60;;;2.40;;
62535;SDS011;63050;47.514;18.920;2023-07-13T22:34:35;4.10;;;2.30;;
62535;SDS011;63050;47.514;18.920;2023-07-13T22:39:36;3.80;;;2.20;;
62535;SDS011;63050;47.514;18.920;2023-07-13T22:44:37;3.50;;;2.00;;
62535;SDS011;63050;47.514;18.920;2023-07-13T22:49:38;2.20;;;1.70;;
62535;SDS011;63050;47.514;18.920;2023-07-13T22:54:39;4.20;;;2.20;;
62535;SDS011;63050;47.514;18.920;2023-07-13T22:59:43;5.10;;;2.50;;
62535;SDS011;63050;47.514;18.920;2023-07-13T23:04:44;9.60;;;2.20;;
62535;SDS011;63050;47.514;18.920;2023-07-13T23:09:50;3.20;;;2.00;;
62535;SDS011;63050;47.514;18.920;2023-07-13T23:14:51;3.40;;;2.10;;
62535;SDS011;63050;47.514;18.920;2023-07-13T23:19:52;3.00;;;2.10;;
62535;SDS011;63050;47.514;18.920;2023-07-13T23:24:52;10.30;;;2.60;;
62535;SDS011;63050;47.514;18.920;2023-07-13T23:29:53;4.00;;;2.10;;
62535;SDS011;63050;47.514;18.920;2023-07-13T23:34:54;3.20;;;2.10;;
62535;SDS011;63050;47.514;18.920;2023-07-13T23:39:55;4.00;;;2.10;;
62535;SDS011;63050;47.514;18.920;2023-07-13T23:44:56;4.60;;;2.80;;
62535;SDS011;63050;47.514;18.920;2023-07-13T23:49:57;5.60;;;2.70;;
62535;SDS011;63050;47.514;18.920;2023-07-13T23:54:58;5.70;;;3.10;;
62535;SDS011;63050;47.514;18.920;2023-07-13T23:59:58;3.90;;;2.60;;
